sensor_id;sensor_type;location;lat;lon;timestamp;temperature;humidity
13344;DHT22;6741;48.964;9.406;2023-04-24T00:01:12;10.40;99.90
13344;DHT22;6741;48.964;9.406;2023-04-24T00:03:39;10.40;99.90
13344;DHT22;6741;48.964;9.406;2023-04-24T00:06:06;10.40;99.90
13344;DHT22;6741;48.964;9.406;2023-04-24T00:08:34;10.40;99.90
13344;DHT22;6741;48.964;9.406;2023-04-24T00:11:01;10.40;99.90
13344;DHT22;6741;48.964;9.406;2023-04-24T00:13:30;10.50;99.90
13344;DHT22;6741;48.964;9.406;2023-04-24T00:15:57;10.50;99.90
13344;DHT22;6741;48.964;9.406;2023-04-24T00:18:23;10.50;99.90
13344;DHT22;6741;48.964;9.406;2023-04-24T00:20:50;10.50;99.90
13344;DHT22;6741;48.964;9.406;2023-04-24T00:23:17;10.50;99.90
13344;DHT22;6741;48.964;9.406;2023-04-24T00:25:44;10.50;99.90
13344;DHT22;6741;48.964;9.406;2023-04-24T00:28:11;10.50;99.90
13344;DHT22;6741;48.964;9.406;2023-04-24T00:30:40;10.60;99.90
13344;DHT22;6741;48.964;9.406;2023-04-24T00:33:07;10.60;99.90
13344;DHT22;6741;48.964;9.406;2023-04-24T00:35:34;10.60;99.90
13344;DHT22;6741;48.964;9.406;2023-04-24T00:38:01;10.60;99.90
13344;DHT22;6741;48.964;9.406;2023-04-24T00:40:28;10.60;99.90
13344;DHT22;6741;48.964;9.406;2023-04-24T00:42:55;10.60;99.90
13344;DHT22;6741;48.964;9.406;2023-04-24T00:45:23;10.60;99.90
13344;DHT22;6741;48.964;9.406;2023-04-24T00:47:52;10.70;99.90
13344;DHT22;6741;48.964;9.406;2023-04-24T00:50:21;10.60;99.90
13344;DHT22;6741;48.964;9.406;2023-04-24T00:52:48;10.60;99.90
13344;DHT22;6741;48.964;9.406;2023-04-24T00:55:15;10.70;99.90
13344;DHT22;6741;48.964;9.406;2023-04-24T00:57:42;10.70;99.90
13344;DHT22;6741;48.964;9.406;2023-04-24T01:00:10;10.70;99.90
13344;DHT22;6741;48.964;9.406;2023-04-24T01:02:38;10.70;99.90
13344;DHT22;6741;48.964;9.406;2023-04-24T01:05:11;10.70;99.90
13344;DHT22;6741;48.964;9.406;2023-04-24T01:07:39;10.70;99.90
13344;DHT22;6741;48.964;9.406;2023-04-24T01:10:10;10.70;99.90
13344;DHT22;6741;48.964;9.406;2023-04-24T01:12:37;10.70;99.90
13344;DHT22;6741;48.964;9.406;2023-04-24T01:15:05;10.70;99.90
13344;DHT22;6741;48.964;9.406;2023-04-24T01:17:33;10.70;99.90
13344;DHT22;6741;48.964;9.406;2023-04-24T01:20:00;10.70;99.90
13344;DHT22;6741;48.964;9.406;2023-04-24T01:22:33;10.70;99.90
13344;DHT22;6741;48.964;9.406;2023-04-24T01:25:00;10.70;99.90
13344;DHT22;6741;48.964;9.406;2023-04-24T01:27:27;10.70;99.90
13344;DHT22;6741;48.964;9.406;2023-04-24T01:29:54;10.70;99.90
13344;DHT22;6741;48.964;9.406;2023-04-24T01:32:21;10.80;99.90
13344;DHT22;6741;48.964;9.406;2023-04-24T01:34:48;10.70;99.90
13344;DHT22;6741;48.964;9.406;2023-04-24T01:37:15;10.80;99.90
13344;DHT22;6741;48.964;9.406;2023-04-24T01:39:44;10.80;99.90
13344;DHT22;6741;48.964;9.406;2023-04-24T01:42:12;10.80;99.90
13344;DHT22;6741;48.964;9.406;2023-04-24T01:44:40;10.70;99.90
13344;DHT22;6741;48.964;9.406;2023-04-24T01:47:07;10.70;99.90
13344;DHT22;6741;48.964;9.406;2023-04-24T01:49:34;10.70;99.90
13344;DHT22;6741;48.964;9.406;2023-04-24T01:52:01;10.70;99.90
13344;DHT22;6741;48.964;9.406;2023-04-24T01:54:28;10.70;99.90
13344;DHT22;6741;48.964;9.406;2023-04-24T01:56:56;10.70;99.90
13344;DHT22;6741;48.964;9.406;2023-04-24T01:59:23;10.70;99.90
13344;DHT22;6741;48.964;9.406;2023-04-24T02:01:51;10.70;99.90
13344;DHT22;6741;48.964;9.406;2023-04-24T02:04:18;10.70;99.90
13344;DHT22;6741;48.964;9.406;2023-04-24T02:06:45;10.60;99.90
13344;DHT22;6741;48.964;9.406;2023-04-24T02:09:12;10.60;99.90
13344;DHT22;6741;48.964;9.406;2023-04-24T02:11:39;10.60;99.90
13344;DHT22;6741;48.964;9.406;2023-04-24T02:14:07;10.60;99.90
13344;DHT22;6741;48.964;9.406;2023-04-24T02:16:34;10.50;99.90
13344;DHT22;6741;48.964;9.406;2023-04-24T02:19:01;10.50;99.90
13344;DHT22;6741;48.964;9.406;2023-04-24T02:21:28;10.50;99.90
13344;DHT22;6741;48.964;9.406;2023-04-24T02:23:56;10.50;99.90
13344;DHT22;6741;48.964;9.406;2023-04-24T02:26:23;10.40;99.90
13344;DHT22;6741;48.964;9.406;2023-04-24T02:28:50;10.50;99.90
13344;DHT22;6741;48.964;9.406;2023-04-24T02:31:20;10.50;99.90
13344;DHT22;6741;48.964;9.406;2023-04-24T02:33:47;10.50;99.90
13344;DHT22;6741;48.964;9.406;2023-04-24T02:36:14;10.60;99.90
13344;DHT22;6741;48.964;9.406;2023-04-24T02:38:41;10.60;99.90
13344;DHT22;6741;48.964;9.406;2023-04-24T02:41:08;10.70;99.90
13344;DHT22;6741;48.964;9.406;2023-04-24T02:43:35;10.70;99.90
13344;DHT22;6741;48.964;9.406;2023-04-24T02:46:02;10.70;99.90
13344;DHT22;6741;48.964;9.406;2023-04-24T02:48:30;10.80;99.90
13344;DHT22;6741;48.964;9.406;2023-04-24T02:50:57;10.80;99.90
13344;DHT22;6741;48.964;9.406;2023-04-24T02:53:24;10.80;99.90
13344;DHT22;6741;48.964;9.406;2023-04-24T02:55:51;10.80;99.90
13344;DHT22;6741;48.964;9.406;2023-04-24T02:58:18;10.90;99.90
13344;DHT22;6741;48.964;9.406;2023-04-24T03:00:46;10.90;99.90
13344;DHT22;6741;48.964;9.406;2023-04-24T03:03:14;10.80;99.90
13344;DHT22;6741;48.964;9.406;2023-04-24T03:05:42;10.80;99.90
13344;DHT22;6741;48.964;9.406;2023-04-24T03:08:09;10.90;99.90
13344;DHT22;6741;48.964;9.406;2023-04-24T03:10:37;10.80;99.90
13344;DHT22;6741;48.964;9.406;2023-04-24T03:13:03;10.80;99.90
13344;DHT22;6741;48.964;9.406;2023-04-24T03:15:30;10.80;99.90
13344;DHT22;6741;48.964;9.406;2023-04-24T03:17:57;10.70;99.90
13344;DHT22;6741;48.964;9.406;2023-04-24T03:20:26;10.70;99.90
13344;DHT22;6741;48.964;9.406;2023-04-24T03:22:54;10.70;99.90
13344;DHT22;6741;48.964;9.406;2023-04-24T03:25:22;10.60;99.90
13344;DHT22;6741;48.964;9.406;2023-04-24T03:27:49;10.60;99.90
13344;DHT22;6741;48.964;9.406;2023-04-24T03:30:16;10.60;99.90
13344;DHT22;6741;48.964;9.406;2023-04-24T03:32:43;10.60;99.90
13344;DHT22;6741;48.964;9.406;2023-04-24T03:35:10;10.50;99.90
13344;DHT22;6741;48.964;9.406;2023-04-24T03:37:37;10.50;99.90
13344;DHT22;6741;48.964;9.406;2023-04-24T03:40:06;10.50;99.90
13344;DHT22;6741;48.964;9.406;2023-04-24T03:42:34;10.50;99.90
13344;DHT22;6741;48.964;9.406;2023-04-24T03:45:01;10.50;99.90
13344;DHT22;6741;48.964;9.406;2023-04-24T03:47:31;10.50;99.90
13344;DHT22;6741;48.964;9.406;2023-04-24T03:49:58;10.50;99.90
13344;DHT22;6741;48.964;9.406;2023-04-24T03:52:25;10.50;99.90
13344;DHT22;6741;48.964;9.406;2023-04-24T03:54:52;10.50;99.90
13344;DHT22;6741;48.964;9.406;2023-04-24T03:57:20;10.50;99.90
13344;DHT22;6741;48.964;9.406;2023-04-24T03:59:47;10.50;99.90
13344;DHT22;6741;48.964;9.406;2023-04-24T04:02:14;10.40;99.90
13344;DHT22;6741;48.964;9.406;2023-04-24T04:04:41;10.40;99.90
13344;DHT22;6741;48.964;9.406;2023-04-24T04:07:11;10.40;99.90
13344;DHT22;6741;48.964;9.406;2023-04-24T04:09:38;10.40;99.90
13344;DHT22;6741;48.964;9.406;2023-04-24T04:12:05;10.40;99.90
13344;DHT22;6741;48.964;9.406;2023-04-24T04:14:34;10.40;99.90
13344;DHT22;6741;48.964;9.406;2023-04-24T04:17:00;10.40;99.90
13344;DHT22;6741;48.964;9.406;2023-04-24T04:19:27;10.40;99.90
13344;DHT22;6741;48.964;9.406;2023-04-24T04:21:55;10.40;99.90
13344;DHT22;6741;48.964;9.406;2023-04-24T04:24:22;10.30;99.90
13344;DHT22;6741;48.964;9.406;2023-04-24T04:26:49;10.40;99.90
13344;DHT22;6741;48.964;9.406;2023-04-24T04:29:16;10.40;99.90
13344;DHT22;6741;48.964;9.406;2023-04-24T04:31:46;10.40;99.90
13344;DHT22;6741;48.964;9.406;2023-04-24T04:34:13;10.20;99.90
13344;DHT22;6741;48.964;9.406;2023-04-24T04:36:40;10.00;99.90
13344;DHT22;6741;48.964;9.406;2023-04-24T04:39:09;9.70;99.90
13344;DHT22;6741;48.964;9.406;2023-04-24T04:41:36;9.60;99.90
13344;DHT22;6741;48.964;9.406;2023-04-24T04:44:03;9.40;99.90
13344;DHT22;6741;48.964;9.406;2023-04-24T04:46:31;9.30;99.90
13344;DHT22;6741;48.964;9.406;2023-04-24T04:49:01;9.20;99.90
13344;DHT22;6741;48.964;9.406;2023-04-24T04:51:28;9.10;99.90
13344;DHT22;6741;48.964;9.406;2023-04-24T04:53:55;9.10;99.90
13344;DHT22;6741;48.964;9.406;2023-04-24T04:56:22;9.00;99.90
13344;DHT22;6741;48.964;9.406;2023-04-24T04:58:49;9.00;99.90
13344;DHT22;6741;48.964;9.406;2023-04-24T05:01:16;9.00;99.90
13344;DHT22;6741;48.964;9.406;2023-04-24T05:03:43;8.90;99.90
13344;DHT22;6741;48.964;9.406;2023-04-24T05:06:12;8.90;99.90
13344;DHT22;6741;48.964;9.406;2023-04-24T05:08:38;8.90;99.90
13344;DHT22;6741;48.964;9.406;2023-04-24T05:11:06;8.90;99.90
13344;DHT22;6741;48.964;9.406;2023-04-24T05:13:33;8.90;99.90
13344;DHT22;6741;48.964;9.406;2023-04-24T05:16:00;8.90;99.90
13344;DHT22;6741;48.964;9.406;2023-04-24T05:18:27;8.90;99.90
13344;DHT22;6741;48.964;9.406;2023-04-24T05:20:54;8.90;99.90
13344;DHT22;6741;48.964;9.406;2023-04-24T05:23:22;8.90;99.90
13344;DHT22;6741;48.964;9.406;2023-04-24T05:25:49;8.90;99.90
13344;DHT22;6741;48.964;9.406;2023-04-24T05:28:16;8.90;99.90
13344;DHT22;6741;48.964;9.406;2023-04-24T05:30:43;8.90;99.90
13344;DHT22;6741;48.964;9.406;2023-04-24T05:33:10;8.90;99.90
13344;DHT22;6741;48.964;9.406;2023-04-24T05:35:37;8.90;99.90
13344;DHT22;6741;48.964;9.406;2023-04-24T05:38:04;8.90;99.90
13344;DHT22;6741;48.964;9.406;2023-04-24T05:40:32;9.00;99.90
13344;DHT22;6741;48.964;9.406;2023-04-24T05:42:59;9.00;99.90
13344;DHT22;6741;48.964;9.406;2023-04-24T05:45:26;8.90;99.90
13344;DHT22;6741;48.964;9.406;2023-04-24T05:47:53;9.00;99.90
13344;DHT22;6741;48.964;9.406;2023-04-24T05:50:20;9.10;99.90
13344;DHT22;6741;48.964;9.406;2023-04-24T05:52:47;9.10;99.90
13344;DHT22;6741;48.964;9.406;2023-04-24T05:55:15;9.10;99.90
13344;DHT22;6741;48.964;9.406;2023-04-24T05:57:45;9.10;99.90
13344;DHT22;6741;48.964;9.406;2023-04-24T06:00:13;9.10;99.90
13344;DHT22;6741;48.964;9.406;2023-04-24T06:02:40;9.10;99.90
13344;DHT22;6741;48.964;9.406;2023-04-24T06:05:07;9.10;99.90
13344;DHT22;6741;48.964;9.406;2023-04-24T06:07:35;9.10;99.90
13344;DHT22;6741;48.964;9.406;2023-04-24T06:10:02;9.10;99.90
13344;DHT22;6741;48.964;9.406;2023-04-24T06:12:29;9.10;99.90
13344;DHT22;6741;48.964;9.406;2023-04-24T06:14:57;9.10;99.90
13344;DHT22;6741;48.964;9.406;2023-04-24T06:17:24;9.10;99.90
13344;DHT22;6741;48.964;9.406;2023-04-24T06:19:51;9.10;99.90
13344;DHT22;6741;48.964;9.406;2023-04-24T06:22:18;9.20;99.90
13344;DHT22;6741;48.964;9.406;2023-04-24T06:24:45;9.20;99.90
13344;DHT22;6741;48.964;9.406;2023-04-24T06:27:12;9.30;99.90
13344;DHT22;6741;48.964;9.406;2023-04-24T06:29:39;9.20;99.90
13344;DHT22;6741;48.964;9.406;2023-04-24T06:32:07;9.10;99.90
13344;DHT22;6741;48.964;9.406;2023-04-24T06:34:34;9.00;99.90
13344;DHT22;6741;48.964;9.406;2023-04-24T06:37:02;9.10;99.90
13344;DHT22;6741;48.964;9.406;2023-04-24T06:39:29;9.20;99.90
13344;DHT22;6741;48.964;9.406;2023-04-24T06:41:56;9.40;99.90
13344;DHT22;6741;48.964;9.406;2023-04-24T06:44:22;9.60;99.90
13344;DHT22;6741;48.964;9.406;2023-04-24T06:46:49;10.00;99.90
13344;DHT22;6741;48.964;9.406;2023-04-24T06:49:18;10.10;99.90
13344;DHT22;6741;48.964;9.406;2023-04-24T06:51:45;10.10;99.90
13344;DHT22;6741;48.964;9.406;2023-04-24T06:54:12;10.20;99.90
13344;DHT22;6741;48.964;9.406;2023-04-24T06:56:39;10.30;99.90
13344;DHT22;6741;48.964;9.406;2023-04-24T06:59:06;10.60;99.90
13344;DHT22;6741;48.964;9.406;2023-04-24T07:01:33;10.50;99.90
13344;DHT22;6741;48.964;9.406;2023-04-24T07:04:00;10.40;99.90
13344;DHT22;6741;48.964;9.406;2023-04-24T07:06:28;10.40;99.90
13344;DHT22;6741;48.964;9.406;2023-04-24T07:08:57;10.40;99.90
13344;DHT22;6741;48.964;9.406;2023-04-24T07:11:24;10.30;99.90
13344;DHT22;6741;48.964;9.406;2023-04-24T07:13:54;10.30;99.90
13344;DHT22;6741;48.964;9.406;2023-04-24T07:16:22;10.20;99.90
13344;DHT22;6741;48.964;9.406;2023-04-24T07:18:49;10.40;99.90
13344;DHT22;6741;48.964;9.406;2023-04-24T07:21:15;10.70;99.90
13344;DHT22;6741;48.964;9.406;2023-04-24T07:23:44;10.70;99.90
13344;DHT22;6741;48.964;9.406;2023-04-24T07:26:11;10.90;99.90
13344;DHT22;6741;48.964;9.406;2023-04-24T07:28:38;11.00;99.90
13344;DHT22;6741;48.964;9.406;2023-04-24T07:31:05;11.00;99.90
13344;DHT22;6741;48.964;9.406;2023-04-24T07:33:32;10.90;99.90
13344;DHT22;6741;48.964;9.406;2023-04-24T07:35:59;10.90;99.90
13344;DHT22;6741;48.964;9.406;2023-04-24T07:38:26;10.80;99.90
13344;DHT22;6741;48.964;9.406;2023-04-24T07:40:54;10.70;99.90
13344;DHT22;6741;48.964;9.406;2023-04-24T07:43:22;10.70;99.90
13344;DHT22;6741;48.964;9.406;2023-04-24T07:45:49;10.70;99.90
13344;DHT22;6741;48.964;9.406;2023-04-24T07:48:16;10.70;99.90
13344;DHT22;6741;48.964;9.406;2023-04-24T07:50:43;10.80;99.90
13344;DHT22;6741;48.964;9.406;2023-04-24T07:53:10;10.80;99.90
13344;DHT22;6741;48.964;9.406;2023-04-24T07:55:37;10.70;99.90
13344;DHT22;6741;48.964;9.406;2023-04-24T07:58:05;10.70;99.90
13344;DHT22;6741;48.964;9.406;2023-04-24T08:00:32;10.70;99.90
13344;DHT22;6741;48.964;9.406;2023-04-24T08:02:59;10.80;99.90
13344;DHT22;6741;48.964;9.406;2023-04-24T08:05:26;10.70;99.90
13344;DHT22;6741;48.964;9.406;2023-04-24T08:07:54;10.70;99.90
13344;DHT22;6741;48.964;9.406;2023-04-24T08:10:21;10.60;99.90
13344;DHT22;6741;48.964;9.406;2023-04-24T08:12:48;10.60;99.90
13344;DHT22;6741;48.964;9.406;2023-04-24T08:15:16;10.60;99.90
13344;DHT22;6741;48.964;9.406;2023-04-24T08:17:43;10.50;99.90
13344;DHT22;6741;48.964;9.406;2023-04-24T08:20:11;10.90;99.90
13344;DHT22;6741;48.964;9.406;2023-04-24T08:22:39;11.20;99.90
13344;DHT22;6741;48.964;9.406;2023-04-24T08:25:07;11.30;99.90
13344;DHT22;6741;48.964;9.406;2023-04-24T08:27:34;11.50;99.90
13344;DHT22;6741;48.964;9.406;2023-04-24T08:30:02;11.50;99.90
13344;DHT22;6741;48.964;9.406;2023-04-24T08:32:30;11.50;99.90
13344;DHT22;6741;48.964;9.406;2023-04-24T08:34:58;11.80;99.90
13344;DHT22;6741;48.964;9.406;2023-04-24T08:37:26;11.50;99.90
13344;DHT22;6741;48.964;9.406;2023-04-24T08:39:53;11.40;99.90
13344;DHT22;6741;48.964;9.406;2023-04-24T08:42:20;11.50;99.90
13344;DHT22;6741;48.964;9.406;2023-04-24T08:44:49;11.40;99.90
13344;DHT22;6741;48.964;9.406;2023-04-24T08:47:16;11.60;99.90
13344;DHT22;6741;48.964;9.406;2023-04-24T08:49:44;11.60;99.90
13344;DHT22;6741;48.964;9.406;2023-04-24T08:52:14;11.80;99.90
13344;DHT22;6741;48.964;9.406;2023-04-24T08:54:42;11.60;99.90
13344;DHT22;6741;48.964;9.406;2023-04-24T08:57:11;11.80;99.90
13344;DHT22;6741;48.964;9.406;2023-04-24T08:59:40;11.90;99.90
13344;DHT22;6741;48.964;9.406;2023-04-24T09:02:10;12.20;99.90
13344;DHT22;6741;48.964;9.406;2023-04-24T09:04:38;12.30;99.90
13344;DHT22;6741;48.964;9.406;2023-04-24T09:07:07;11.90;99.90
13344;DHT22;6741;48.964;9.406;2023-04-24T09:09:35;11.80;99.90
13344;DHT22;6741;48.964;9.406;2023-04-24T09:12:02;12.00;99.90
13344;DHT22;6741;48.964;9.406;2023-04-24T09:14:30;11.80;99.90
13344;DHT22;6741;48.964;9.406;2023-04-24T09:16:58;11.70;99.90
13344;DHT22;6741;48.964;9.406;2023-04-24T09:19:25;11.70;99.90
13344;DHT22;6741;48.964;9.406;2023-04-24T09:21:52;11.40;99.90
13344;DHT22;6741;48.964;9.406;2023-04-24T09:24:22;11.40;99.90
13344;DHT22;6741;48.964;9.406;2023-04-24T09:26:55;11.40;99.90
13344;DHT22;6741;48.964;9.406;2023-04-24T09:29:24;11.50;99.90
13344;DHT22;6741;48.964;9.406;2023-04-24T09:31:51;11.80;99.90
13344;DHT22;6741;48.964;9.406;2023-04-24T09:34:21;11.60;99.90
13344;DHT22;6741;48.964;9.406;2023-04-24T09:36:49;11.20;99.90
13344;DHT22;6741;48.964;9.406;2023-04-24T09:39:17;11.10;99.90
13344;DHT22;6741;48.964;9.406;2023-04-24T09:41:49;11.00;99.90
13344;DHT22;6741;48.964;9.406;2023-04-24T09:44:17;11.00;99.90
13344;DHT22;6741;48.964;9.406;2023-04-24T09:46:49;10.90;99.90
13344;DHT22;6741;48.964;9.406;2023-04-24T09:49:22;10.90;99.90
13344;DHT22;6741;48.964;9.406;2023-04-24T09:51:49;10.90;99.90
13344;DHT22;6741;48.964;9.406;2023-04-24T09:54:17;11.20;99.90
13344;DHT22;6741;48.964;9.406;2023-04-24T09:56:47;11.30;99.90
13344;DHT22;6741;48.964;9.406;2023-04-24T09:59:16;11.40;99.90
13344;DHT22;6741;48.964;9.406;2023-04-24T10:01:43;11.40;99.90
13344;DHT22;6741;48.964;9.406;2023-04-24T10:04:18;11.40;99.90
13344;DHT22;6741;48.964;9.406;2023-04-24T10:06:46;11.10;99.90
13344;DHT22;6741;48.964;9.406;2023-04-24T10:09:14;11.10;99.90
13344;DHT22;6741;48.964;9.406;2023-04-24T10:11:42;11.10;99.90
13344;DHT22;6741;48.964;9.406;2023-04-24T10:14:13;11.20;99.90
13344;DHT22;6741;48.964;9.406;2023-04-24T10:16:40;11.40;99.90
13344;DHT22;6741;48.964;9.406;2023-04-24T10:19:08;11.40;99.90
13344;DHT22;6741;48.964;9.406;2023-04-24T10:21:35;11.70;99.90
13344;DHT22;6741;48.964;9.406;2023-04-24T10:24:03;12.20;99.90
13344;DHT22;6741;48.964;9.406;2023-04-24T10:26:33;12.20;99.90
13344;DHT22;6741;48.964;9.406;2023-04-24T10:29:01;12.10;99.90
13344;DHT22;6741;48.964;9.406;2023-04-24T10:31:31;12.80;99.90
13344;DHT22;6741;48.964;9.406;2023-04-24T10:34:00;12.80;99.90
13344;DHT22;6741;48.964;9.406;2023-04-24T10:36:29;12.40;99.90
13344;DHT22;6741;48.964;9.406;2023-04-24T10:38:59;12.10;99.90
13344;DHT22;6741;48.964;9.406;2023-04-24T10:41:27;11.70;99.90
13344;DHT22;6741;48.964;9.406;2023-04-24T10:44:07;11.50;99.90
13344;DHT22;6741;48.964;9.406;2023-04-24T10:46:36;11.30;99.90
13344;DHT22;6741;48.964;9.406;2023-04-24T10:49:04;11.20;99.90
13344;DHT22;6741;48.964;9.406;2023-04-24T10:51:46;11.30;99.90
13344;DHT22;6741;48.964;9.406;2023-04-24T10:54:24;11.30;99.90
13344;DHT22;6741;48.964;9.406;2023-04-24T10:56:51;11.20;99.90
13344;DHT22;6741;48.964;9.406;2023-04-24T10:59:25;11.10;99.90
13344;DHT22;6741;48.964;9.406;2023-04-24T11:01:56;11.00;99.90
13344;DHT22;6741;48.964;9.406;2023-04-24T11:04:30;10.80;99.90
13344;DHT22;6741;48.964;9.406;2023-04-24T11:06:58;10.90;99.90
13344;DHT22;6741;48.964;9.406;2023-04-24T11:09:27;10.90;99.90
13344;DHT22;6741;48.964;9.406;2023-04-24T11:12:03;11.10;99.90
13344;DHT22;6741;48.964;9.406;2023-04-24T11:15:00;11.20;99.90
13344;DHT22;6741;48.964;9.406;2023-04-24T11:17:30;11.20;99.90
13344;DHT22;6741;48.964;9.406;2023-04-24T11:20:01;11.20;99.90
13344;DHT22;6741;48.964;9.406;2023-04-24T11:22:30;11.10;99.90
13344;DHT22;6741;48.964;9.406;2023-04-24T11:25:00;11.20;99.90
13344;DHT22;6741;48.964;9.406;2023-04-24T11:27:29;11.40;99.90
13344;DHT22;6741;48.964;9.406;2023-04-24T11:30:00;11.40;99.90
13344;DHT22;6741;48.964;9.406;2023-04-24T11:32:30;11.50;99.90
13344;DHT22;6741;48.964;9.406;2023-04-24T11:34:58;11.30;99.90
13344;DHT22;6741;48.964;9.406;2023-04-24T11:37:27;11.10;99.90
13344;DHT22;6741;48.964;9.406;2023-04-24T11:39:56;11.10;99.90
13344;DHT22;6741;48.964;9.406;2023-04-24T11:42:23;11.20;99.90
13344;DHT22;6741;48.964;9.406;2023-04-24T11:44:52;11.30;99.90
13344;DHT22;6741;48.964;9.406;2023-04-24T11:47:19;11.40;99.90
13344;DHT22;6741;48.964;9.406;2023-04-24T11:49:50;11.30;99.90
13344;DHT22;6741;48.964;9.406;2023-04-24T11:52:17;11.30;99.90
13344;DHT22;6741;48.964;9.406;2023-04-24T11:54:48;11.30;99.90
13344;DHT22;6741;48.964;9.406;2023-04-24T11:57:15;11.40;99.90
13344;DHT22;6741;48.964;9.406;2023-04-24T11:59:42;11.50;99.90
13344;DHT22;6741;48.964;9.406;2023-04-24T12:02:20;11.40;99.90
13344;DHT22;6741;48.964;9.406;2023-04-24T12:04:48;11.40;99.90
13344;DHT22;6741;48.964;9.406;2023-04-24T12:07:15;11.20;99.90
13344;DHT22;6741;48.964;9.406;2023-04-24T12:09:43;11.30;99.90
13344;DHT22;6741;48.964;9.406;2023-04-24T12:12:11;11.40;99.90
13344;DHT22;6741;48.964;9.406;2023-04-24T12:14:52;11.60;99.90
13344;DHT22;6741;48.964;9.406;2023-04-24T12:17:26;11.60;99.90
13344;DHT22;6741;48.964;9.406;2023-04-24T12:19:58;11.40;99.90
13344;DHT22;6741;48.964;9.406;2023-04-24T12:22:26;11.10;99.90
13344;DHT22;6741;48.964;9.406;2023-04-24T12:24:58;11.00;99.90
13344;DHT22;6741;48.964;9.406;2023-04-24T12:27:26;11.00;99.90
13344;DHT22;6741;48.964;9.406;2023-04-24T12:29:55;10.90;99.90
13344;DHT22;6741;48.964;9.406;2023-04-24T12:32:22;10.80;99.90
13344;DHT22;6741;48.964;9.406;2023-04-24T12:34:50;10.80;99.90
13344;DHT22;6741;48.964;9.406;2023-04-24T12:37:19;10.90;99.90
13344;DHT22;6741;48.964;9.406;2023-04-24T12:40:00;11.10;99.90
13344;DHT22;6741;48.964;9.406;2023-04-24T12:42:28;11.10;99.90
13344;DHT22;6741;48.964;9.406;2023-04-24T12:44:59;11.20;99.90
13344;DHT22;6741;48.964;9.406;2023-04-24T12:47:27;11.20;99.90
13344;DHT22;6741;48.964;9.406;2023-04-24T12:49:54;11.20;99.90
13344;DHT22;6741;48.964;9.406;2023-04-24T12:52:23;11.10;99.90
13344;DHT22;6741;48.964;9.406;2023-04-24T12:54:53;10.70;99.90
13344;DHT22;6741;48.964;9.406;2023-04-24T12:57:21;10.30;99.90
13344;DHT22;6741;48.964;9.406;2023-04-24T12:59:49;10.20;99.90
13344;DHT22;6741;48.964;9.406;2023-04-24T13:02:17;9.70;99.90
13344;DHT22;6741;48.964;9.406;2023-04-24T13:04:44;9.60;99.90
13344;DHT22;6741;48.964;9.406;2023-04-24T13:07:13;9.60;99.90
13344;DHT22;6741;48.964;9.406;2023-04-24T13:09:43;9.80;99.90
13344;DHT22;6741;48.964;9.406;2023-04-24T13:12:11;9.70;99.90
13344;DHT22;6741;48.964;9.406;2023-04-24T13:14:39;9.80;99.90
13344;DHT22;6741;48.964;9.406;2023-04-24T13:17:06;9.70;99.90
13344;DHT22;6741;48.964;9.406;2023-04-24T13:19:36;9.60;99.90
13344;DHT22;6741;48.964;9.406;2023-04-24T13:22:04;9.80;99.90
13344;DHT22;6741;48.964;9.406;2023-04-24T13:24:31;10.00;99.90
13344;DHT22;6741;48.964;9.406;2023-04-24T13:26:59;10.10;99.90
13344;DHT22;6741;48.964;9.406;2023-04-24T13:29:27;10.30;99.90
13344;DHT22;6741;48.964;9.406;2023-04-24T13:31:54;10.30;99.90
13344;DHT22;6741;48.964;9.406;2023-04-24T13:34:21;10.30;99.90
13344;DHT22;6741;48.964;9.406;2023-04-24T13:36:49;10.50;99.90
13344;DHT22;6741;48.964;9.406;2023-04-24T13:39:16;10.60;99.90
13344;DHT22;6741;48.964;9.406;2023-04-24T13:41:43;10.80;99.90
13344;DHT22;6741;48.964;9.406;2023-04-24T13:44:14;10.80;99.90
13344;DHT22;6741;48.964;9.406;2023-04-24T13:46:41;11.80;99.90
13344;DHT22;6741;48.964;9.406;2023-04-24T13:49:09;12.20;99.90
13344;DHT22;6741;48.964;9.406;2023-04-24T13:51:36;12.00;99.90
13344;DHT22;6741;48.964;9.406;2023-04-24T13:54:03;11.60;99.90
13344;DHT22;6741;48.964;9.406;2023-04-24T13:56:30;11.40;99.90
13344;DHT22;6741;48.964;9.406;2023-04-24T13:58:57;11.40;99.90
13344;DHT22;6741;48.964;9.406;2023-04-24T14:01:26;11.40;99.90
13344;DHT22;6741;48.964;9.406;2023-04-24T14:03:53;11.60;99.90
13344;DHT22;6741;48.964;9.406;2023-04-24T14:06:21;11.50;99.90
13344;DHT22;6741;48.964;9.406;2023-04-24T14:08:49;11.40;99.90
13344;DHT22;6741;48.964;9.406;2023-04-24T14:11:16;11.90;99.90
13344;DHT22;6741;48.964;9.406;2023-04-24T14:13:43;11.90;99.90
13344;DHT22;6741;48.964;9.406;2023-04-24T14:16:11;12.10;99.90
13344;DHT22;6741;48.964;9.406;2023-04-24T14:18:39;11.90;99.90
13344;DHT22;6741;48.964;9.406;2023-04-24T14:21:06;11.90;99.90
13344;DHT22;6741;48.964;9.406;2023-04-24T14:23:33;12.10;99.90
13344;DHT22;6741;48.964;9.406;2023-04-24T14:26:00;12.00;99.90
13344;DHT22;6741;48.964;9.406;2023-04-24T14:28:27;12.00;99.90
13344;DHT22;6741;48.964;9.406;2023-04-24T14:30:54;11.90;99.90
13344;DHT22;6741;48.964;9.406;2023-04-24T14:33:21;11.90;99.90
13344;DHT22;6741;48.964;9.406;2023-04-24T14:35:49;11.70;99.90
13344;DHT22;6741;48.964;9.406;2023-04-24T14:38:16;11.50;99.90
13344;DHT22;6741;48.964;9.406;2023-04-24T14:40:43;11.50;99.90
13344;DHT22;6741;48.964;9.406;2023-04-24T14:43:10;11.40;99.90
13344;DHT22;6741;48.964;9.406;2023-04-24T14:45:37;11.20;99.90
13344;DHT22;6741;48.964;9.406;2023-04-24T14:48:06;11.10;99.90
13344;DHT22;6741;48.964;9.406;2023-04-24T14:50:34;11.00;99.90
13344;DHT22;6741;48.964;9.406;2023-04-24T14:53:03;11.30;99.90
13344;DHT22;6741;48.964;9.406;2023-04-24T14:55:30;11.60;99.90
13344;DHT22;6741;48.964;9.406;2023-04-24T14:57:59;11.70;99.90
13344;DHT22;6741;48.964;9.406;2023-04-24T15:00:26;13.20;99.90
13344;DHT22;6741;48.964;9.406;2023-04-24T15:02:53;13.70;99.90
13344;DHT22;6741;48.964;9.406;2023-04-24T15:05:20;13.50;99.90
13344;DHT22;6741;48.964;9.406;2023-04-24T15:07:48;13.70;99.90
13344;DHT22;6741;48.964;9.406;2023-04-24T15:10:16;13.40;99.90
13344;DHT22;6741;48.964;9.406;2023-04-24T15:12:44;13.80;99.90
13344;DHT22;6741;48.964;9.406;2023-04-24T15:15:11;13.60;99.90
13344;DHT22;6741;48.964;9.406;2023-04-24T15:17:38;12.90;99.90
13344;DHT22;6741;48.964;9.406;2023-04-24T15:20:06;12.50;99.90
13344;DHT22;6741;48.964;9.406;2023-04-24T15:22:33;12.20;99.90
13344;DHT22;6741;48.964;9.406;2023-04-24T15:25:00;12.00;99.90
13344;DHT22;6741;48.964;9.406;2023-04-24T15:27:39;12.20;99.90
13344;DHT22;6741;48.964;9.406;2023-04-24T15:30:07;12.30;99.90
13344;DHT22;6741;48.964;9.406;2023-04-24T15:32:35;12.40;99.90
13344;DHT22;6741;48.964;9.406;2023-04-24T15:35:01;12.10;99.90
13344;DHT22;6741;48.964;9.406;2023-04-24T15:37:28;11.80;99.90
13344;DHT22;6741;48.964;9.406;2023-04-24T15:39:56;11.70;99.90
13344;DHT22;6741;48.964;9.406;2023-04-24T15:42:22;11.60;99.90
13344;DHT22;6741;48.964;9.406;2023-04-24T15:44:51;11.70;99.90
13344;DHT22;6741;48.964;9.406;2023-04-24T15:47:19;11.70;99.90
13344;DHT22;6741;48.964;9.406;2023-04-24T15:49:46;11.70;99.90
13344;DHT22;6741;48.964;9.406;2023-04-24T15:52:13;11.50;99.90